Terminal Aerodrome Forecast
Issued by NWS Charleston, WV

Current Version | Previous Version | Text Only | Print | Product List | Glossary Off
Versions: 1 2 3 4 5 6 7 8 9 10 11 12 13 14 15 16 17 18 19 20 21 22 23

000
FTUS41 KRLX 211700
TAFEKN
TAF
KEKN 211725Z 2118/2218 27006KT P6SM SKC
     FM220000 26004KT P6SM BKN150
     FM221500 26006KT 4SM -SHRA BKN035=

USA.gov is the U.S. government's official web portal to all federal, state and local government web resources and services.